sensor_id;sensor_type;location;lat;lon;timestamp;temperature;humidity
6752;DHT22;3413;47.680;9.166;2023-04-07T00:04:21;12.50;67.40
6752;DHT22;3413;47.680;9.166;2023-04-07T00:09:24;12.50;67.50
6752;DHT22;3413;47.680;9.166;2023-04-07T00:14:25;12.50;67.70
6752;DHT22;3413;47.680;9.166;2023-04-07T00:19:27;12.50;67.80
6752;DHT22;3413;47.680;9.166;2023-04-07T00:24:29;12.40;67.90
6752;DHT22;3413;47.680;9.166;2023-04-07T00:29:35;12.50;68.10
6752;DHT22;3413;47.680;9.166;2023-04-07T00:34:37;12.40;68.00
6752;DHT22;3413;47.680;9.166;2023-04-07T00:39:39;12.40;68.20
6752;DHT22;3413;47.680;9.166;2023-04-07T00:44:40;12.40;68.20
6752;DHT22;3413;47.680;9.166;2023-04-07T00:49:42;12.40;68.30
6752;DHT22;3413;47.680;9.166;2023-04-07T00:54:45;12.40;68.40
6752;DHT22;3413;47.680;9.166;2023-04-07T00:59:51;12.50;68.50
6752;DHT22;3413;47.680;9.166;2023-04-07T01:05:03;12.50;68.60
6752;DHT22;3413;47.680;9.166;2023-04-07T01:10:08;12.40;68.60
6752;DHT22;3413;47.680;9.166;2023-04-07T01:15:21;12.40;68.70
6752;DHT22;3413;47.680;9.166;2023-04-07T01:20:31;12.30;68.90
6752;DHT22;3413;47.680;9.166;2023-04-07T01:25:53;12.30;68.90
6752;DHT22;3413;47.680;9.166;2023-04-07T01:30:59;12.30;69.00
6752;DHT22;3413;47.680;9.166;2023-04-07T01:36:02;12.30;68.90
6752;DHT22;3413;47.680;9.166;2023-04-07T01:41:06;12.20;69.60
6752;DHT22;3413;47.680;9.166;2023-04-07T01:46:10;12.30;69.00
6752;DHT22;3413;47.680;9.166;2023-04-07T01:51:13;12.10;68.80
6752;DHT22;3413;47.680;9.166;2023-04-07T01:56:19;12.20;69.00
6752;DHT22;3413;47.680;9.166;2023-04-07T02:01:25;12.20;68.80
6752;DHT22;3413;47.680;9.166;2023-04-07T02:06:31;12.20;68.90
6752;DHT22;3413;47.680;9.166;2023-04-07T02:11:36;12.10;69.00
6752;DHT22;3413;47.680;9.166;2023-04-07T02:16:40;12.10;69.20
6752;DHT22;3413;47.680;9.166;2023-04-07T02:21:45;12.10;69.30
6752;DHT22;3413;47.680;9.166;2023-04-07T02:26:50;12.20;69.50
6752;DHT22;3413;47.680;9.166;2023-04-07T02:31:52;12.20;69.40
6752;DHT22;3413;47.680;9.166;2023-04-07T02:36:54;12.20;69.50
6752;DHT22;3413;47.680;9.166;2023-04-07T02:41:56;12.20;69.50
6752;DHT22;3413;47.680;9.166;2023-04-07T02:46:58;12.20;69.50
6752;DHT22;3413;47.680;9.166;2023-04-07T02:52:01;12.20;69.70
6752;DHT22;3413;47.680;9.166;2023-04-07T02:57:03;12.20;69.70
6752;DHT22;3413;47.680;9.166;2023-04-07T03:02:05;12.20;69.70
6752;DHT22;3413;47.680;9.166;2023-04-07T03:07:09;12.20;69.80
6752;DHT22;3413;47.680;9.166;2023-04-07T03:12:11;12.20;70.00
6752;DHT22;3413;47.680;9.166;2023-04-07T03:17:14;12.20;69.90
6752;DHT22;3413;47.680;9.166;2023-04-07T03:22:17;12.10;70.00
6752;DHT22;3413;47.680;9.166;2023-04-07T03:27:23;12.10;70.00
6752;DHT22;3413;47.680;9.166;2023-04-07T03:32:26;12.20;70.10
6752;DHT22;3413;47.680;9.166;2023-04-07T03:37:28;12.10;70.10
6752;DHT22;3413;47.680;9.166;2023-04-07T03:42:30;12.10;70.20
6752;DHT22;3413;47.680;9.166;2023-04-07T03:47:37;12.00;70.20
6752;DHT22;3413;47.680;9.166;2023-04-07T03:52:40;12.10;70.20
6752;DHT22;3413;47.680;9.166;2023-04-07T03:57:54;12.10;70.30
6752;DHT22;3413;47.680;9.166;2023-04-07T04:02:59;12.10;70.30
6752;DHT22;3413;47.680;9.166;2023-04-07T04:08:03;12.00;70.30
6752;DHT22;3413;47.680;9.166;2023-04-07T04:13:08;12.00;70.40
6752;DHT22;3413;47.680;9.166;2023-04-07T04:18:10;11.90;70.40
6752;DHT22;3413;47.680;9.166;2023-04-07T04:23:14;11.80;70.40
6752;DHT22;3413;47.680;9.166;2023-04-07T04:28:17;11.80;70.50
6752;DHT22;3413;47.680;9.166;2023-04-07T04:33:19;11.80;70.40
6752;DHT22;3413;47.680;9.166;2023-04-07T04:38:29;11.80;70.40
6752;DHT22;3413;47.680;9.166;2023-04-07T04:43:39;11.80;70.40
6752;DHT22;3413;47.680;9.166;2023-04-07T04:48:42;11.70;70.40
6752;DHT22;3413;47.680;9.166;2023-04-07T04:53:44;11.60;70.40
6752;DHT22;3413;47.680;9.166;2023-04-07T04:58:47;11.50;70.40
6752;DHT22;3413;47.680;9.166;2023-04-07T05:04:12;11.40;70.40
6752;DHT22;3413;47.680;9.166;2023-04-07T05:09:21;11.30;70.20
6752;DHT22;3413;47.680;9.166;2023-04-07T05:14:24;11.20;70.30
6752;DHT22;3413;47.680;9.166;2023-04-07T05:19:31;11.10;70.60
6752;DHT22;3413;47.680;9.166;2023-04-07T05:24:55;11.20;70.70
6752;DHT22;3413;47.680;9.166;2023-04-07T05:29:57;11.20;70.60
6752;DHT22;3413;47.680;9.166;2023-04-07T05:35:05;11.20;70.80
6752;DHT22;3413;47.680;9.166;2023-04-07T05:40:10;11.30;70.80
6752;DHT22;3413;47.680;9.166;2023-04-07T05:45:13;11.30;70.90
6752;DHT22;3413;47.680;9.166;2023-04-07T05:50:19;11.20;71.00
6752;DHT22;3413;47.680;9.166;2023-04-07T05:55:23;11.20;71.10
6752;DHT22;3413;47.680;9.166;2023-04-07T06:00:26;11.30;71.20
6752;DHT22;3413;47.680;9.166;2023-04-07T06:05:38;11.40;71.30
6752;DHT22;3413;47.680;9.166;2023-04-07T06:10:46;11.50;71.50
6752;DHT22;3413;47.680;9.166;2023-04-07T06:15:48;11.50;71.30
6752;DHT22;3413;47.680;9.166;2023-04-07T06:20:50;11.50;71.40
6752;DHT22;3413;47.680;9.166;2023-04-07T06:25:53;11.60;71.70
6752;DHT22;3413;47.680;9.166;2023-04-07T06:30:56;11.80;71.90
6752;DHT22;3413;47.680;9.166;2023-04-07T06:36:00;11.80;71.90
6752;DHT22;3413;47.680;9.166;2023-04-07T06:41:03;11.90;72.00
6752;DHT22;3413;47.680;9.166;2023-04-07T06:46:05;12.00;71.90
6752;DHT22;3413;47.680;9.166;2023-04-07T06:51:07;12.20;72.20
6752;DHT22;3413;47.680;9.166;2023-04-07T06:56:10;12.20;72.20
6752;DHT22;3413;47.680;9.166;2023-04-07T07:01:15;12.30;72.10
6752;DHT22;3413;47.680;9.166;2023-04-07T07:06:17;12.40;72.20
6752;DHT22;3413;47.680;9.166;2023-04-07T07:11:19;12.30;72.40
6752;DHT22;3413;47.680;9.166;2023-04-07T07:16:21;12.40;72.70
6752;DHT22;3413;47.680;9.166;2023-04-07T07:21:24;12.50;73.10
6752;DHT22;3413;47.680;9.166;2023-04-07T07:26:27;12.70;73.20
6752;DHT22;3413;47.680;9.166;2023-04-07T07:31:29;12.80;73.30
6752;DHT22;3413;47.680;9.166;2023-04-07T07:36:32;12.90;73.80
6752;DHT22;3413;47.680;9.166;2023-04-07T07:41:35;13.00;73.80
6752;DHT22;3413;47.680;9.166;2023-04-07T07:46:39;13.10;73.80
6752;DHT22;3413;47.680;9.166;2023-04-07T07:51:42;13.10;73.80
6752;DHT22;3413;47.680;9.166;2023-04-07T07:56:44;13.20;74.00
6752;DHT22;3413;47.680;9.166;2023-04-07T08:01:47;13.20;73.90
6752;DHT22;3413;47.680;9.166;2023-04-07T08:06:50;13.30;74.00
6752;DHT22;3413;47.680;9.166;2023-04-07T08:11:52;13.40;74.30
6752;DHT22;3413;47.680;9.166;2023-04-07T08:16:55;13.50;74.10
6752;DHT22;3413;47.680;9.166;2023-04-07T08:21:57;13.60;74.30
6752;DHT22;3413;47.680;9.166;2023-04-07T08:26:59;13.70;74.20
6752;DHT22;3413;47.680;9.166;2023-04-07T08:32:02;13.90;74.80
6752;DHT22;3413;47.680;9.166;2023-04-07T08:37:04;14.30;75.50
6752;DHT22;3413;47.680;9.166;2023-04-07T08:42:07;14.70;76.10
6752;DHT22;3413;47.680;9.166;2023-04-07T08:47:12;15.20;76.00
6752;DHT22;3413;47.680;9.166;2023-04-07T08:52:17;15.10;75.10
6752;DHT22;3413;47.680;9.166;2023-04-07T08:57:23;15.00;74.70
6752;DHT22;3413;47.680;9.166;2023-04-07T09:02:26;15.00;74.60
6752;DHT22;3413;47.680;9.166;2023-04-07T09:07:30;15.00;74.60
6752;DHT22;3413;47.680;9.166;2023-04-07T09:12:36;14.90;74.70
6752;DHT22;3413;47.680;9.166;2023-04-07T09:17:45;15.00;74.80
6752;DHT22;3413;47.680;9.166;2023-04-07T09:22:48;15.10;74.40
6752;DHT22;3413;47.680;9.166;2023-04-07T09:27:54;14.80;74.00
6752;DHT22;3413;47.680;9.166;2023-04-07T09:32:57;14.60;73.90
6752;DHT22;3413;47.680;9.166;2023-04-07T09:38:03;14.50;73.90
6752;DHT22;3413;47.680;9.166;2023-04-07T09:43:17;14.50;74.00
6752;DHT22;3413;47.680;9.166;2023-04-07T09:48:20;14.40;74.40
6752;DHT22;3413;47.680;9.166;2023-04-07T09:53:43;14.40;74.20
6752;DHT22;3413;47.680;9.166;2023-04-07T09:58:46;14.30;74.50
6752;DHT22;3413;47.680;9.166;2023-04-07T10:03:49;14.40;74.50
6752;DHT22;3413;47.680;9.166;2023-04-07T10:08:53;14.50;74.60
6752;DHT22;3413;47.680;9.166;2023-04-07T10:13:55;14.60;74.40
6752;DHT22;3413;47.680;9.166;2023-04-07T10:18:57;14.50;74.40
6752;DHT22;3413;47.680;9.166;2023-04-07T10:24:12;14.60;74.50
6752;DHT22;3413;47.680;9.166;2023-04-07T10:29:21;14.70;74.70
6752;DHT22;3413;47.680;9.166;2023-04-07T10:39:52;14.60;74.80
6752;DHT22;3413;47.680;9.166;2023-04-07T10:45:13;14.60;74.80
6752;DHT22;3413;47.680;9.166;2023-04-07T10:50:19;14.70;74.60
6752;DHT22;3413;47.680;9.166;2023-04-07T10:55:35;14.90;74.60
6752;DHT22;3413;47.680;9.166;2023-04-07T11:00:38;15.10;74.40
6752;DHT22;3413;47.680;9.166;2023-04-07T11:05:40;15.20;74.80
6752;DHT22;3413;47.680;9.166;2023-04-07T11:10:46;15.30;74.80
6752;DHT22;3413;47.680;9.166;2023-04-07T11:15:49;15.50;75.10
6752;DHT22;3413;47.680;9.166;2023-04-07T11:20:59;15.70;75.20
6752;DHT22;3413;47.680;9.166;2023-04-07T11:26:04;15.80;75.20
6752;DHT22;3413;47.680;9.166;2023-04-07T11:31:07;15.90;75.30
6752;DHT22;3413;47.680;9.166;2023-04-07T11:36:09;16.00;75.40
6752;DHT22;3413;47.680;9.166;2023-04-07T11:41:14;16.10;75.60
6752;DHT22;3413;47.680;9.166;2023-04-07T11:46:17;16.00;75.60
6752;DHT22;3413;47.680;9.166;2023-04-07T11:51:21;16.10;76.20
6752;DHT22;3413;47.680;9.166;2023-04-07T11:56:26;16.20;75.70
6752;DHT22;3413;47.680;9.166;2023-04-07T12:01:39;16.20;75.80
6752;DHT22;3413;47.680;9.166;2023-04-07T12:06:47;16.20;75.80
6752;DHT22;3413;47.680;9.166;2023-04-07T12:11:49;16.30;76.00
6752;DHT22;3413;47.680;9.166;2023-04-07T12:16:52;16.20;75.80
6752;DHT22;3413;47.680;9.166;2023-04-07T12:21:57;16.30;75.70
6752;DHT22;3413;47.680;9.166;2023-04-07T12:27:04;16.30;75.80
6752;DHT22;3413;47.680;9.166;2023-04-07T12:32:07;16.40;76.00
6752;DHT22;3413;47.680;9.166;2023-04-07T12:37:10;16.40;76.00
6752;DHT22;3413;47.680;9.166;2023-04-07T12:42:13;16.50;76.00
6752;DHT22;3413;47.680;9.166;2023-04-07T12:47:18;16.60;76.00
6752;DHT22;3413;47.680;9.166;2023-04-07T12:52:21;16.70;75.70
6752;DHT22;3413;47.680;9.166;2023-04-07T12:57:34;16.70;75.90
6752;DHT22;3413;47.680;9.166;2023-04-07T13:02:39;16.60;75.70
6752;DHT22;3413;47.680;9.166;2023-04-07T13:07:46;16.50;75.80
6752;DHT22;3413;47.680;9.166;2023-04-07T13:12:50;16.50;75.80
6752;DHT22;3413;47.680;9.166;2023-04-07T13:17:55;16.30;75.90
6752;DHT22;3413;47.680;9.166;2023-04-07T13:22:59;16.30;75.90
6752;DHT22;3413;47.680;9.166;2023-04-07T13:28:10;16.20;75.80
6752;DHT22;3413;47.680;9.166;2023-04-07T13:33:20;16.20;75.90
6752;DHT22;3413;47.680;9.166;2023-04-07T13:38:25;15.90;75.60
6752;DHT22;3413;47.680;9.166;2023-04-07T13:43:42;15.80;75.80
6752;DHT22;3413;47.680;9.166;2023-04-07T13:48:50;15.90;76.00
6752;DHT22;3413;47.680;9.166;2023-04-07T13:53:58;15.80;76.20
6752;DHT22;3413;47.680;9.166;2023-04-07T13:59:14;15.90;76.10
6752;DHT22;3413;47.680;9.166;2023-04-07T14:04:56;16.00;76.00
6752;DHT22;3413;47.680;9.166;2023-04-07T14:10:12;15.90;76.30
6752;DHT22;3413;47.680;9.166;2023-04-07T14:15:14;15.80;76.40
6752;DHT22;3413;47.680;9.166;2023-04-07T14:20:19;15.90;76.50
6752;DHT22;3413;47.680;9.166;2023-04-07T14:25:33;16.00;76.60
6752;DHT22;3413;47.680;9.166;2023-04-07T14:30:41;16.20;76.90
6752;DHT22;3413;47.680;9.166;2023-04-07T14:36:02;16.30;76.90
6752;DHT22;3413;47.680;9.166;2023-04-07T14:41:08;16.40;76.80
6752;DHT22;3413;47.680;9.166;2023-04-07T14:46:17;16.40;77.00
6752;DHT22;3413;47.680;9.166;2023-04-07T14:51:54;16.50;76.80
6752;DHT22;3413;47.680;9.166;2023-04-07T14:57:21;16.40;76.90
6752;DHT22;3413;47.680;9.166;2023-04-07T15:02:28;16.40;77.00
6752;DHT22;3413;47.680;9.166;2023-04-07T15:07:40;16.30;76.50
6752;DHT22;3413;47.680;9.166;2023-04-07T15:12:51;16.20;76.30
6752;DHT22;3413;47.680;9.166;2023-04-07T15:17:56;16.00;76.40
6752;DHT22;3413;47.680;9.166;2023-04-07T15:22:59;15.90;76.30
6752;DHT22;3413;47.680;9.166;2023-04-07T15:28:43;15.80;76.40
6752;DHT22;3413;47.680;9.166;2023-04-07T15:33:59;15.70;76.20
6752;DHT22;3413;47.680;9.166;2023-04-07T15:39:18;15.60;75.80
6752;DHT22;3413;47.680;9.166;2023-04-07T15:44:24;15.50;75.60
6752;DHT22;3413;47.680;9.166;2023-04-07T15:49:53;15.40;75.80
6752;DHT22;3413;47.680;9.166;2023-04-07T15:55:35;15.30;75.50
6752;DHT22;3413;47.680;9.166;2023-04-07T16:00:45;15.20;75.90
6752;DHT22;3413;47.680;9.166;2023-04-07T16:06:09;15.20;75.70
6752;DHT22;3413;47.680;9.166;2023-04-07T16:11:19;15.10;75.50
6752;DHT22;3413;47.680;9.166;2023-04-07T16:16:39;14.90;75.50
6752;DHT22;3413;47.680;9.166;2023-04-07T16:21:45;14.70;75.50
6752;DHT22;3413;47.680;9.166;2023-04-07T16:27:13;14.70;75.70
6752;DHT22;3413;47.680;9.166;2023-04-07T16:38:39;14.50;75.30
6752;DHT22;3413;47.680;9.166;2023-04-07T16:43:44;14.40;75.10
6752;DHT22;3413;47.680;9.166;2023-04-07T16:48:48;14.30;75.00
6752;DHT22;3413;47.680;9.166;2023-04-07T16:54:19;14.30;75.10
6752;DHT22;3413;47.680;9.166;2023-04-07T16:59:30;14.20;75.10
6752;DHT22;3413;47.680;9.166;2023-04-07T17:04:48;14.10;74.90
6752;DHT22;3413;47.680;9.166;2023-04-07T17:10:20;14.00;74.80
6752;DHT22;3413;47.680;9.166;2023-04-07T17:15:37;14.00;75.10
6752;DHT22;3413;47.680;9.166;2023-04-07T17:20:57;14.00;74.80
6752;DHT22;3413;47.680;9.166;2023-04-07T17:26:04;13.90;75.20
6752;DHT22;3413;47.680;9.166;2023-04-07T17:31:37;13.90;74.90
6752;DHT22;3413;47.680;9.166;2023-04-07T17:36:39;13.80;75.10
6752;DHT22;3413;47.680;9.166;2023-04-07T17:41:42;13.80;75.30
6752;DHT22;3413;47.680;9.166;2023-04-07T17:46:44;13.80;75.20
6752;DHT22;3413;47.680;9.166;2023-04-07T17:51:46;13.80;75.20
6752;DHT22;3413;47.680;9.166;2023-04-07T17:56:48;13.90;75.30
6752;DHT22;3413;47.680;9.166;2023-04-07T18:01:50;13.90;75.30
6752;DHT22;3413;47.680;9.166;2023-04-07T18:06:52;13.90;75.50
6752;DHT22;3413;47.680;9.166;2023-04-07T18:11:55;13.90;75.40
6752;DHT22;3413;47.680;9.166;2023-04-07T18:16:57;13.90;75.50
6752;DHT22;3413;47.680;9.166;2023-04-07T18:21:59;13.80;75.40
6752;DHT22;3413;47.680;9.166;2023-04-07T18:27:02;13.80;75.50
6752;DHT22;3413;47.680;9.166;2023-04-07T18:32:04;13.70;75.50
6752;DHT22;3413;47.680;9.166;2023-04-07T18:37:07;13.70;75.50
6752;DHT22;3413;47.680;9.166;2023-04-07T18:42:09;13.60;75.30
6752;DHT22;3413;47.680;9.166;2023-04-07T18:47:11;13.60;75.40
6752;DHT22;3413;47.680;9.166;2023-04-07T18:52:13;13.50;75.30
6752;DHT22;3413;47.680;9.166;2023-04-07T18:57:15;13.40;75.40
6752;DHT22;3413;47.680;9.166;2023-04-07T19:02:17;13.40;75.30
6752;DHT22;3413;47.680;9.166;2023-04-07T19:07:19;13.20;75.40
6752;DHT22;3413;47.680;9.166;2023-04-07T19:12:21;13.10;75.30
6752;DHT22;3413;47.680;9.166;2023-04-07T19:17:23;13.10;75.40
6752;DHT22;3413;47.680;9.166;2023-04-07T19:22:25;13.00;75.30
6752;DHT22;3413;47.680;9.166;2023-04-07T19:27:28;13.00;75.30
6752;DHT22;3413;47.680;9.166;2023-04-07T19:32:30;13.00;75.40
6752;DHT22;3413;47.680;9.166;2023-04-07T19:37:32;12.90;75.40
6752;DHT22;3413;47.680;9.166;2023-04-07T19:42:36;12.90;75.50
6752;DHT22;3413;47.680;9.166;2023-04-07T19:47:40;13.00;75.60
6752;DHT22;3413;47.680;9.166;2023-04-07T19:52:43;13.00;75.60
6752;DHT22;3413;47.680;9.166;2023-04-07T19:57:46;13.00;75.70
6752;DHT22;3413;47.680;9.166;2023-04-07T20:02:48;13.00;75.80
6752;DHT22;3413;47.680;9.166;2023-04-07T20:07:51;13.10;76.00
6752;DHT22;3413;47.680;9.166;2023-04-07T20:12:54;13.20;76.10
6752;DHT22;3413;47.680;9.166;2023-04-07T20:17:56;13.20;76.10
6752;DHT22;3413;47.680;9.166;2023-04-07T20:22:58;13.10;76.10
6752;DHT22;3413;47.680;9.166;2023-04-07T20:28:00;13.10;76.20
6752;DHT22;3413;47.680;9.166;2023-04-07T20:33:02;13.10;76.20
6752;DHT22;3413;47.680;9.166;2023-04-07T20:38:04;13.10;76.40
6752;DHT22;3413;47.680;9.166;2023-04-07T20:43:05;13.10;76.50
6752;DHT22;3413;47.680;9.166;2023-04-07T20:48:07;13.10;76.50
6752;DHT22;3413;47.680;9.166;2023-04-07T20:53:09;13.00;76.50
6752;DHT22;3413;47.680;9.166;2023-04-07T20:58:11;12.90;76.50
6752;DHT22;3413;47.680;9.166;2023-04-07T21:03:14;12.90;76.60
6752;DHT22;3413;47.680;9.166;2023-04-07T21:08:17;12.90;76.70
6752;DHT22;3413;47.680;9.166;2023-04-07T21:13:21;13.00;76.80
6752;DHT22;3413;47.680;9.166;2023-04-07T21:18:24;12.90;76.70
6752;DHT22;3413;47.680;9.166;2023-04-07T21:23:27;12.90;76.80
6752;DHT22;3413;47.680;9.166;2023-04-07T21:28:32;12.80;76.70
6752;DHT22;3413;47.680;9.166;2023-04-07T21:33:34;12.80;76.80
6752;DHT22;3413;47.680;9.166;2023-04-07T21:38:36;12.80;76.80
6752;DHT22;3413;47.680;9.166;2023-04-07T21:43:41;12.70;76.90
6752;DHT22;3413;47.680;9.166;2023-04-07T21:48:43;12.60;76.90
6752;DHT22;3413;47.680;9.166;2023-04-07T21:53:50;12.50;76.80
6752;DHT22;3413;47.680;9.166;2023-04-07T21:58:52;12.60;77.10
6752;DHT22;3413;47.680;9.166;2023-04-07T22:03:54;12.60;77.00
6752;DHT22;3413;47.680;9.166;2023-04-07T22:08:56;12.50;77.60
6752;DHT22;3413;47.680;9.166;2023-04-07T22:14:02;12.50;77.00
6752;DHT22;3413;47.680;9.166;2023-04-07T22:19:04;12.40;77.00
6752;DHT22;3413;47.680;9.166;2023-04-07T22:24:06;12.30;77.00
6752;DHT22;3413;47.680;9.166;2023-04-07T22:29:08;12.30;77.00
6752;DHT22;3413;47.680;9.166;2023-04-07T22:34:10;12.30;77.10
6752;DHT22;3413;47.680;9.166;2023-04-07T22:39:12;12.30;77.20
6752;DHT22;3413;47.680;9.166;2023-04-07T22:44:14;12.30;77.10
6752;DHT22;3413;47.680;9.166;2023-04-07T22:49:16;12.30;77.20
6752;DHT22;3413;47.680;9.166;2023-04-07T22:54:18;12.20;77.30
6752;DHT22;3413;47.680;9.166;2023-04-07T22:59:20;12.30;77.40
6752;DHT22;3413;47.680;9.166;2023-04-07T23:04:23;12.20;77.30
6752;DHT22;3413;47.680;9.166;2023-04-07T23:09:25;12.20;77.40
6752;DHT22;3413;47.680;9.166;2023-04-07T23:14:28;12.30;77.50
6752;DHT22;3413;47.680;9.166;2023-04-07T23:19:30;12.20;77.40
6752;DHT22;3413;47.680;9.166;2023-04-07T23:24:31;12.30;77.50
6752;DHT22;3413;47.680;9.166;2023-04-07T23:29:33;12.30;77.50
6752;DHT22;3413;47.680;9.166;2023-04-07T23:34:35;12.30;77.60
6752;DHT22;3413;47.680;9.166;2023-04-07T23:39:37;12.30;77.60
6752;DHT22;3413;47.680;9.166;2023-04-07T23:44:39;12.30;77.60
6752;DHT22;3413;47.680;9.166;2023-04-07T23:49:41;12.40;77.40
6752;DHT22;3413;47.680;9.166;2023-04-07T23:54:44;12.40;77.40
6752;DHT22;3413;47.680;9.166;2023-04-07T23:59:45;12.30;77.30
